createdAt,value
2019-04-04T00:00:10.756Z,22.80
2019-04-04T00:02:40.075Z,20.87
2019-04-04T00:05:09.545Z,23.57
2019-04-04T00:07:38.894Z,21.03
2019-04-04T00:10:09.466Z,22.57
2019-04-04T00:12:39.546Z,20.57
2019-04-04T00:15:09.088Z,24.20
2019-04-04T00:17:38.432Z,27.67
2019-04-04T00:20:07.609Z,22.83
2019-04-04T00:22:36.692Z,22.97
2019-04-04T00:25:09.615Z,21.87
2019-04-04T00:27:37.657Z,23.07
2019-04-04T00:30:07.824Z,26.17
2019-04-04T00:32:37.187Z,28.37
2019-04-04T00:35:06.700Z,33.97
2019-04-04T00:37:36.490Z,32.00
2019-04-04T00:40:06.887Z,27.10
2019-04-04T00:42:35.989Z,25.27
2019-04-04T00:45:07.022Z,25.87
2019-04-04T00:47:36.187Z,23.10
2019-04-04T00:50:07.386Z,24.20
2019-04-04T00:52:36.718Z,23.13
2019-04-04T00:55:08.227Z,23.13
2019-04-04T00:57:37.589Z,22.60
2019-04-04T01:00:08.786Z,22.43
2019-04-04T01:02:38.148Z,28.80
2019-04-04T01:05:07.955Z,23.67
2019-04-04T01:07:37.293Z,20.17
2019-04-04T01:10:07.420Z,25.50
2019-04-04T01:12:36.514Z,21.17
2019-04-04T01:15:07.389Z,21.17
2019-04-04T01:17:36.444Z,19.33
2019-04-04T01:20:08.604Z,17.73
2019-04-04T01:22:37.940Z,18.07
2019-04-04T01:25:07.680Z,17.53
2019-04-04T01:27:37.536Z,16.17
2019-04-04T01:30:07.814Z,16.77
2019-04-04T01:32:36.921Z,15.63
2019-04-04T01:35:09.244Z,14.07
2019-04-04T01:37:38.573Z,14.70
2019-04-04T01:40:08.313Z,14.03
2019-04-04T01:42:38.775Z,15.07
2019-04-04T01:45:08.539Z,16.87
2019-04-04T01:47:37.905Z,15.13
2019-04-04T01:50:07.049Z,16.53
2019-04-04T01:52:36.382Z,13.93
2019-04-04T01:55:06.130Z,12.13
2019-04-04T01:57:38.615Z,13.17
2019-04-04T02:00:11.006Z,12.07
2019-04-04T02:02:40.363Z,11.67
2019-04-04T02:05:09.460Z,10.63
2019-04-04T02:07:38.793Z,12.73
2019-04-04T02:10:08.110Z,13.90
2019-04-04T02:12:39.256Z,14.83
2019-04-04T02:15:09.095Z,11.37
2019-04-04T02:17:38.230Z,15.93
2019-04-04T02:20:08.679Z,12.00
2019-04-04T02:22:37.746Z,11.70
2019-04-04T02:25:07.501Z,13.03
2019-04-04T02:27:37.925Z,13.37
2019-04-04T02:30:14.622Z,13.10
2019-04-04T02:32:40.455Z,12.30
2019-04-04T02:35:11.547Z,12.23
2019-04-04T02:37:41.110Z,10.70
2019-04-04T02:40:11.027Z,10.30
2019-04-04T02:42:40.698Z,11.00
2019-04-04T02:45:09.853Z,8.67
2019-04-04T02:47:39.212Z,8.80
2019-04-04T02:50:08.989Z,9.07
2019-04-04T02:52:38.354Z,8.13
2019-04-04T02:55:07.851Z,9.27
2019-04-04T02:57:41.165Z,10.23
2019-04-04T03:00:07.998Z,9.57
2019-04-04T03:02:37.157Z,11.27
2019-04-04T03:05:06.303Z,11.57
2019-04-04T03:07:35.668Z,10.47
2019-04-04T03:10:07.049Z,11.30
2019-04-04T03:12:36.475Z,11.67
2019-04-04T03:15:09.238Z,13.53
2019-04-04T03:17:38.770Z,13.10
2019-04-04T03:20:08.173Z,13.87
2019-04-04T03:22:37.265Z,16.47
2019-04-04T03:25:07.097Z,16.83
2019-04-04T03:27:36.499Z,17.63
2019-04-04T03:30:13.184Z,18.47
2019-04-04T03:32:37.791Z,18.97
2019-04-04T03:35:08.193Z,19.90
2019-04-04T03:37:40.431Z,20.00
2019-04-04T03:40:08.718Z,20.47
2019-04-04T03:42:37.867Z,20.43
2019-04-04T03:45:07.081Z,19.70
2019-04-04T03:47:36.187Z,21.70
2019-04-04T03:50:07.318Z,21.17
2019-04-04T03:52:36.643Z,21.07
2019-04-04T03:55:08.476Z,21.47
2019-04-04T03:57:37.816Z,19.10
2019-04-04T04:00:09.263Z,19.00
2019-04-04T04:02:38.324Z,22.50
2019-04-04T04:05:34.103Z,19.93
2019-04-04T04:08:00.128Z,18.03
2019-04-04T04:10:32.241Z,19.50
2019-04-04T04:13:00.302Z,19.77
2019-04-04T04:15:30.592Z,21.97
2019-04-04T04:17:59.774Z,21.77
2019-04-04T04:20:28.879Z,22.07
2019-04-04T04:22:58.561Z,22.13
2019-04-04T04:25:27.913Z,24.03
2019-04-04T04:27:57.022Z,20.97
2019-04-04T04:30:26.351Z,20.27
2019-04-04T04:32:57.107Z,22.33
2019-04-04T04:35:26.835Z,22.43
2019-04-04T04:37:56.187Z,20.83
2019-04-04T04:40:25.424Z,20.60
2019-04-04T04:42:54.547Z,19.57
2019-04-04T04:45:23.722Z,22.10
2019-04-04T04:47:55.885Z,18.47
2019-04-04T04:50:24.276Z,19.33
2019-04-04T04:52:53.382Z,17.20
2019-04-04T04:55:26.654Z,20.43
2019-04-04T04:57:56.042Z,17.43
2019-04-04T05:00:27.406Z,20.03
2019-04-04T05:02:55.295Z,19.53
2019-04-04T05:05:24.405Z,21.73
2019-04-04T05:07:54.821Z,21.60
2019-04-04T05:10:24.188Z,112.57
2019-04-04T05:12:53.788Z,189.00
2019-04-04T05:15:22.935Z,25.40
2019-04-04T05:17:52.069Z,36.93
2019-04-04T05:20:23.157Z,26.20
2019-04-04T05:22:52.535Z,35.57
2019-04-04T05:25:21.882Z,21.17
2019-04-04T05:27:51.217Z,20.30
2019-04-04T05:30:20.637Z,23.10
2019-04-04T05:32:50.010Z,23.37
2019-04-04T05:35:20.864Z,20.70
2019-04-04T05:37:50.219Z,28.57
2019-04-04T05:40:23.233Z,30.87
2019-04-04T05:42:50.597Z,29.30
2019-04-04T05:45:19.798Z,23.03
2019-04-04T05:47:49.192Z,25.93
2019-04-04T05:50:18.295Z,19.80
2019-04-04T05:52:47.389Z,20.43
2019-04-04T05:55:16.472Z,27.03
2019-04-04T05:57:45.970Z,25.90
2019-04-04T06:00:15.915Z,25.87
2019-04-04T06:02:45.010Z,22.50
2019-04-04T06:05:14.717Z,23.20
2019-04-04T06:07:44.085Z,28.07
2019-04-04T06:10:13.361Z,27.57
2019-04-04T06:12:42.742Z,30.87
2019-04-04T06:15:11.920Z,27.63
2019-04-04T06:17:41.063Z,28.13
2019-04-04T06:20:10.465Z,27.37
2019-04-04T06:22:39.831Z,30.43
2019-04-04T06:25:09.394Z,34.00
2019-04-04T06:27:40.288Z,35.07
2019-04-04T06:30:09.602Z,42.73
2019-04-04T06:32:39.215Z,58.53
2019-04-04T06:35:08.463Z,54.50
2019-04-04T06:37:38.817Z,48.13
2019-04-04T06:40:09.038Z,51.23
2019-04-04T06:42:38.395Z,47.13
2019-04-04T06:45:07.544Z,44.60
2019-04-04T06:47:36.669Z,37.70
2019-04-04T06:50:08.184Z,38.20
2019-04-04T06:52:37.804Z,41.00
2019-04-04T06:55:07.654Z,44.33
2019-04-04T06:57:37.582Z,47.67
2019-04-04T07:00:08.542Z,48.17
2019-04-04T07:02:38.135Z,50.97
2019-04-04T07:05:10.678Z,48.50
2019-04-04T07:07:42.980Z,45.67
2019-04-04T07:10:11.543Z,37.87
2019-04-04T07:12:40.911Z,36.43
2019-04-04T07:15:15.579Z,38.30
2019-04-04T07:17:42.716Z,39.03
2019-04-04T07:20:12.412Z,41.47
2019-04-04T07:22:42.049Z,44.80
2019-04-04T07:25:12.312Z,39.03
2019-04-04T07:27:41.878Z,45.27
2019-04-04T07:30:11.706Z,47.60
2019-04-04T07:32:41.591Z,45.00
2019-04-04T07:35:10.877Z,53.53
2019-04-04T07:37:40.214Z,49.77
2019-04-04T07:40:09.659Z,53.07
2019-04-04T07:42:40.339Z,47.40
2019-04-04T07:45:09.759Z,49.27
2019-04-04T07:47:38.862Z,51.90
2019-04-04T07:50:08.541Z,51.83
2019-04-04T07:52:37.887Z,51.13
2019-04-04T07:55:10.010Z,50.10
2019-04-04T07:57:38.634Z,50.97
2019-04-04T08:00:07.821Z,44.60
2019-04-04T08:02:37.161Z,46.77
2019-04-04T08:05:08.819Z,43.33
2019-04-04T08:07:38.169Z,54.53
2019-04-04T08:10:19.608Z,49.67
2019-04-04T08:12:38.337Z,48.40
2019-04-04T08:15:08.514Z,46.43
2019-04-04T08:17:37.638Z,39.00
2019-04-04T08:20:07.750Z,44.77
2019-04-04T08:22:39.540Z,40.90
2019-04-04T08:25:08.213Z,41.60
2019-04-04T08:27:37.554Z,35.87
2019-04-04T08:30:08.340Z,36.63
2019-04-04T08:32:37.675Z,39.83
2019-04-04T08:35:08.571Z,41.77
2019-04-04T08:37:37.912Z,37.27
2019-04-04T08:40:07.910Z,39.23
2019-04-04T08:42:37.281Z,40.17
2019-04-04T08:45:07.762Z,41.10
2019-04-04T08:47:37.693Z,39.93
2019-04-04T08:50:07.230Z,41.87
2019-04-04T08:52:36.472Z,45.37
2019-04-04T08:55:07.817Z,43.80
2019-04-04T08:57:36.918Z,40.40
2019-04-04T09:00:09.511Z,42.17
2019-04-04T09:02:38.791Z,43.00
2019-04-04T09:05:12.403Z,41.70
2019-04-04T09:07:39.564Z,47.00
2019-04-04T09:10:09.791Z,43.03
2019-04-04T09:12:38.861Z,43.83
2019-04-04T09:15:08.559Z,39.60
2019-04-04T09:17:37.946Z,39.13
2019-04-04T09:20:09.500Z,35.93
2019-04-04T09:22:40.768Z,35.03
2019-04-04T09:25:11.042Z,40.27
2019-04-04T09:27:43.118Z,36.67
2019-04-04T09:30:15.327Z,36.80
2019-04-04T09:32:44.693Z,34.50
2019-04-04T09:35:14.952Z,33.87
2019-04-04T09:37:44.862Z,40.07
2019-04-04T09:40:13.956Z,32.63
2019-04-04T09:42:46.276Z,35.47
2019-04-04T09:45:15.561Z,33.87
2019-04-04T09:47:44.692Z,30.13
2019-04-04T09:50:13.889Z,32.43
2019-04-04T09:52:43.034Z,33.53
2019-04-04T09:55:12.150Z,32.97
2019-04-04T09:57:41.492Z,31.20
2019-04-04T10:00:16.900Z,31.67
2019-04-04T10:02:46.069Z,29.90
2019-04-04T10:05:15.905Z,32.90
2019-04-04T10:07:45.251Z,33.33
2019-04-04T10:10:15.981Z,30.90
2019-04-04T10:12:45.354Z,32.93
2019-04-04T10:15:15.392Z,27.90
2019-04-04T10:17:44.958Z,34.03
2019-04-04T10:20:14.483Z,31.87
2019-04-04T10:22:43.791Z,32.33
2019-04-04T10:25:13.058Z,32.13
2019-04-04T10:27:42.589Z,33.47
2019-04-04T10:30:12.296Z,30.73
2019-04-04T10:32:41.711Z,32.93
2019-04-04T10:35:10.998Z,33.07
2019-04-04T10:37:40.402Z,31.27
2019-04-04T10:40:10.045Z,34.83
2019-04-04T10:42:39.219Z,36.03
2019-04-04T10:45:08.558Z,35.50
2019-04-04T10:47:37.664Z,36.63
2019-04-04T10:50:07.829Z,38.47
2019-04-04T10:52:38.245Z,34.63
2019-04-04T10:55:07.715Z,32.27
2019-04-04T10:57:37.127Z,32.73
2019-04-04T11:00:10.507Z,32.97
2019-04-04T11:02:39.609Z,35.33
2019-04-04T11:05:08.952Z,34.07
2019-04-04T11:07:38.336Z,35.50
2019-04-04T11:10:07.769Z,31.73
2019-04-04T11:12:37.153Z,35.40
2019-04-04T11:15:07.714Z,35.67
2019-04-04T11:17:37.129Z,31.57
2019-04-04T11:20:07.065Z,37.87
2019-04-04T11:22:36.430Z,37.80
2019-04-04T11:25:06.755Z,33.03
2019-04-04T11:27:35.928Z,31.67
2019-04-04T11:30:08.269Z,34.80
2019-04-04T11:32:37.611Z,36.63
2019-04-04T11:35:07.256Z,34.83
2019-04-04T11:37:36.549Z,35.33
2019-04-04T11:40:11.269Z,35.67
2019-04-04T11:42:40.360Z,34.77
2019-04-04T11:45:09.487Z,41.43
2019-04-04T11:47:38.620Z,35.63
2019-04-04T11:50:08.482Z,42.73
2019-04-04T11:52:37.848Z,38.17
2019-04-04T11:55:07.157Z,39.87
2019-04-04T11:57:36.552Z,39.83
2019-04-04T12:00:10.594Z,34.03
2019-04-04T12:02:40.071Z,40.77
2019-04-04T12:05:09.681Z,40.00
2019-04-04T12:07:38.941Z,35.40
2019-04-04T12:10:08.322Z,34.23
2019-04-04T12:12:37.647Z,34.00
2019-04-04T12:15:08.856Z,33.17
2019-04-04T12:17:37.936Z,35.53
2019-04-04T12:20:07.809Z,33.80
2019-04-04T12:22:36.950Z,36.87
2019-04-04T12:25:07.423Z,36.67
2019-04-04T12:27:36.791Z,32.80
2019-04-04T12:30:10.049Z,33.27
2019-04-04T12:32:39.162Z,34.73
2019-04-04T12:35:08.582Z,33.77
2019-04-04T12:37:38.229Z,32.63
2019-04-04T12:40:19.310Z,40.87
2019-04-04T12:42:38.453Z,35.67
2019-04-04T12:45:09.135Z,36.40
2019-04-04T12:47:38.350Z,34.33
2019-04-04T12:50:07.469Z,34.73
2019-04-04T12:52:37.010Z,33.87
2019-04-04T12:55:07.424Z,33.13
2019-04-04T12:57:36.808Z,35.57
2019-04-04T13:00:07.841Z,32.23
2019-04-04T13:02:37.272Z,33.73
2019-04-04T13:05:10.548Z,30.17
2019-04-04T13:07:39.679Z,31.27
2019-04-04T13:10:11.725Z,32.43
2019-04-04T13:12:40.524Z,29.93
2019-04-04T13:15:10.620Z,26.73
2019-04-04T13:17:39.982Z,25.70
2019-04-04T13:20:09.863Z,28.63
2019-04-04T13:22:39.424Z,26.77
2019-04-04T13:25:08.935Z,28.03
2019-04-04T13:27:38.343Z,25.63
2019-04-04T13:30:12.758Z,23.90
2019-04-04T13:32:42.109Z,24.83
2019-04-04T13:35:11.307Z,25.20
2019-04-04T13:37:40.642Z,24.73
2019-04-04T13:40:10.654Z,23.70
2019-04-04T13:42:40.014Z,20.23
2019-04-04T13:45:14.087Z,17.37
2019-04-04T13:47:43.178Z,15.00
2019-04-04T13:50:12.897Z,16.60
2019-04-04T13:52:42.320Z,15.87
2019-04-04T13:55:11.474Z,14.57
2019-04-04T13:57:42.189Z,11.90
2019-04-04T14:00:12.340Z,10.97
2019-04-04T14:02:44.660Z,9.90
2019-04-04T14:05:14.748Z,8.40
2019-04-04T14:07:44.300Z,7.87
2019-04-04T14:10:17.122Z,7.23
2019-04-04T14:12:44.977Z,7.77
2019-04-04T14:15:14.233Z,8.67
2019-04-04T14:17:44.160Z,6.67
2019-04-04T14:20:14.239Z,7.73
2019-04-04T14:22:43.609Z,6.37
2019-04-04T14:25:12.697Z,7.07
2019-04-04T14:27:41.801Z,7.93
2019-04-04T14:30:11.707Z,7.80
2019-04-04T14:32:41.026Z,6.83
2019-04-04T14:35:10.674Z,5.27
2019-04-04T14:37:39.700Z,6.57
2019-04-04T14:40:09.513Z,5.03
2019-04-04T14:42:38.620Z,7.60
2019-04-04T14:45:07.938Z,6.63
2019-04-04T14:47:37.329Z,6.10
2019-04-04T14:50:07.633Z,5.87
2019-04-04T14:52:39.469Z,5.50
2019-04-04T14:55:08.423Z,7.87
2019-04-04T14:57:37.796Z,5.80
2019-04-04T15:00:09.816Z,5.37
2019-04-04T15:02:38.912Z,6.47
2019-04-04T15:05:08.589Z,10.97
2019-04-04T15:07:37.989Z,11.07
2019-04-04T15:10:07.129Z,7.37
2019-04-04T15:12:36.582Z,8.40
2019-04-04T15:15:06.383Z,7.60
2019-04-04T15:17:35.839Z,7.57
2019-04-04T15:20:06.911Z,6.20
2019-04-04T15:22:36.045Z,6.73
2019-04-04T15:25:05.786Z,6.30
2019-04-04T15:27:35.456Z,9.17
2019-04-04T15:30:06.190Z,6.47
2019-04-04T15:32:35.332Z,8.30
2019-04-04T15:35:05.760Z,7.43
2019-04-04T15:37:35.133Z,8.33
2019-04-04T15:40:06.003Z,11.83
2019-04-04T15:42:35.596Z,9.03
2019-04-04T15:45:07.475Z,8.60
2019-04-04T15:47:36.852Z,8.03
2019-04-04T15:50:08.675Z,7.07
2019-04-04T15:52:37.794Z,9.50
2019-04-04T15:55:07.301Z,9.97
2019-04-04T15:57:36.466Z,7.23
2019-04-04T16:00:08.695Z,12.00
2019-04-04T16:02:37.864Z,7.27
2019-04-04T16:05:08.831Z,7.00
2019-04-04T16:07:37.952Z,6.93
2019-04-04T16:10:10.664Z,5.90
2019-04-04T16:12:40.053Z,13.13
2019-04-04T16:15:09.331Z,8.83
2019-04-04T16:17:38.376Z,6.50
2019-04-04T16:20:09.530Z,7.20
2019-04-04T16:22:38.612Z,7.83
2019-04-04T16:25:07.877Z,7.47
2019-04-04T16:27:37.272Z,7.97
2019-04-04T16:30:08.041Z,6.57
2019-04-04T16:32:37.993Z,7.03
2019-04-04T16:35:07.156Z,6.63
2019-04-04T16:37:36.553Z,6.60
2019-04-04T16:40:10.942Z,8.97
2019-04-04T16:42:40.393Z,8.23
2019-04-04T16:45:09.491Z,7.27
2019-04-04T16:47:38.574Z,6.23
2019-04-04T16:50:07.940Z,7.93
2019-04-04T16:52:37.027Z,10.17
2019-04-04T16:55:11.545Z,9.07
2019-04-04T16:57:43.318Z,9.57
2019-04-04T17:00:13.592Z,11.93
2019-04-04T17:02:42.952Z,9.63
2019-04-04T17:05:12.899Z,9.53
2019-04-04T17:07:42.284Z,7.13
2019-04-04T17:10:11.634Z,11.53
2019-04-04T17:12:40.983Z,9.40
2019-04-04T17:15:10.239Z,11.03
2019-04-04T17:17:39.587Z,6.43
2019-04-04T17:20:09.229Z,8.40
2019-04-04T17:22:38.610Z,19.70
2019-04-04T17:25:08.798Z,26.23
2019-04-04T17:27:37.826Z,27.20
2019-04-04T17:30:10.559Z,23.70
2019-04-04T17:32:39.934Z,32.90
2019-04-04T17:35:09.908Z,33.90
2019-04-04T17:37:39.315Z,36.83
2019-04-04T17:40:08.496Z,36.43
2019-04-04T17:42:37.596Z,47.53
2019-04-04T17:45:10.354Z,41.60
2019-04-04T17:47:40.049Z,43.03
2019-04-04T17:50:11.317Z,44.30
2019-04-04T17:52:40.460Z,45.40
2019-04-04T17:55:10.497Z,45.53
2019-04-04T17:57:39.818Z,44.63
2019-04-04T18:00:10.389Z,43.43
2019-04-04T18:02:39.500Z,49.27
2019-04-04T18:05:09.989Z,50.60
2019-04-04T18:07:39.395Z,48.30
2019-04-04T18:10:09.837Z,45.33
2019-04-04T18:12:40.423Z,46.77
2019-04-04T18:15:10.998Z,47.57
2019-04-04T18:17:40.451Z,51.10
2019-04-04T18:20:10.971Z,47.17
2019-04-04T18:22:40.362Z,51.23
2019-04-04T18:25:10.003Z,43.27
2019-04-04T18:27:42.412Z,47.97
2019-04-04T18:30:15.424Z,50.07
2019-04-04T18:32:44.616Z,49.03
2019-04-04T18:35:13.906Z,47.47
2019-04-04T18:37:43.759Z,48.77
2019-04-04T18:40:13.115Z,47.90
2019-04-04T18:42:52.636Z,44.87
2019-04-04T18:45:13.096Z,47.10
2019-04-04T18:47:42.489Z,48.57
2019-04-04T18:50:11.960Z,46.73
2019-04-04T18:52:41.162Z,48.13
2019-04-04T18:55:19.671Z,42.93
2019-04-04T18:57:41.919Z,43.37
2019-04-04T19:00:12.996Z,48.87
2019-04-04T19:02:42.460Z,42.63
2019-04-04T19:05:12.310Z,43.97
2019-04-04T19:07:41.787Z,43.97
2019-04-04T19:10:11.639Z,44.87
2019-04-04T19:12:41.182Z,40.63
2019-04-04T19:15:10.471Z,45.00
2019-04-04T19:17:39.817Z,44.57
2019-04-04T19:20:10.202Z,46.23
2019-04-04T19:22:39.855Z,38.33
2019-04-04T19:25:09.730Z,42.07
2019-04-04T19:27:38.837Z,47.93
2019-04-04T19:30:10.231Z,44.57
2019-04-04T19:32:39.441Z,40.70
2019-04-04T19:35:08.768Z,46.83
2019-04-04T19:37:38.124Z,44.10
2019-04-04T19:40:09.042Z,45.17
2019-04-04T19:42:39.009Z,47.60
2019-04-04T19:45:09.458Z,45.77
2019-04-04T19:47:38.975Z,47.17
2019-04-04T19:50:11.650Z,47.40
2019-04-04T19:52:40.993Z,48.57
2019-04-04T19:55:10.491Z,54.33
2019-04-04T19:57:39.873Z,52.80
2019-04-04T20:00:10.343Z,53.60
2019-04-04T20:02:39.459Z,51.90
2019-04-04T20:05:08.800Z,50.70
2019-04-04T20:07:37.925Z,54.57
2019-04-04T20:10:07.106Z,47.73
2019-04-04T20:12:36.468Z,49.77
2019-04-04T20:15:06.872Z,51.33
2019-04-04T20:17:36.468Z,51.80
2019-04-04T20:20:07.105Z,50.83
2019-04-04T20:22:36.560Z,50.90
2019-04-04T20:25:06.637Z,53.27
2019-04-04T20:27:36.009Z,54.57
2019-04-04T20:30:10.282Z,57.27
2019-04-04T20:32:39.621Z,52.27
2019-04-04T20:35:09.341Z,52.53
2019-04-04T20:37:38.437Z,56.77
2019-04-04T20:40:08.560Z,55.57
2019-04-04T20:42:37.894Z,57.03
2019-04-04T20:45:07.088Z,60.47
2019-04-04T20:47:36.215Z,57.27
2019-04-04T20:50:07.797Z,59.13
2019-04-04T20:52:36.873Z,60.77
2019-04-04T20:55:07.002Z,58.20
2019-04-04T20:57:36.374Z,59.07
2019-04-04T21:00:07.576Z,63.17
2019-04-04T21:02:36.777Z,59.73
2019-04-04T21:05:08.102Z,62.60
2019-04-04T21:07:37.629Z,62.23
2019-04-04T21:10:07.558Z,59.13
2019-04-04T21:12:36.577Z,63.17
2019-04-04T21:15:06.953Z,62.60
2019-04-04T21:17:36.335Z,66.77
2019-04-04T21:20:07.349Z,70.27
2019-04-04T21:22:36.546Z,64.70
2019-04-04T21:25:07.567Z,66.97
2019-04-04T21:27:36.989Z,67.77
2019-04-04T21:30:08.157Z,70.80
2019-04-04T21:32:37.234Z,70.87
2019-04-04T21:35:07.438Z,71.07
2019-04-04T21:37:36.577Z,75.10
2019-04-04T21:40:05.822Z,74.97
2019-04-04T21:42:35.376Z,70.07
2019-04-04T21:45:08.708Z,73.10
2019-04-04T21:47:37.880Z,79.30
2019-04-04T21:50:07.926Z,75.47
2019-04-04T21:52:37.522Z,80.73
2019-04-04T21:55:07.544Z,85.47
2019-04-04T21:57:36.669Z,74.00
2019-04-04T22:00:08.432Z,70.80
2019-04-04T22:02:38.026Z,75.17
2019-04-04T22:05:08.430Z,75.67
2019-04-04T22:07:37.685Z,79.57
2019-04-04T22:10:10.009Z,74.27
2019-04-04T22:12:39.485Z,74.73
2019-04-04T22:15:08.922Z,76.67
2019-04-04T22:17:38.507Z,80.57
2019-04-04T22:20:08.194Z,74.73
2019-04-04T22:22:37.420Z,83.20
2019-04-04T22:25:10.227Z,75.63
2019-04-04T22:27:45.979Z,81.17
2019-04-04T22:30:15.683Z,82.37
2019-04-04T22:32:44.761Z,81.20
2019-04-04T22:35:14.209Z,76.30
2019-04-04T22:37:43.868Z,80.93
2019-04-04T22:40:13.050Z,77.50
2019-04-04T22:42:42.620Z,85.60
2019-04-04T22:45:11.938Z,77.87
2019-04-04T22:47:41.048Z,85.60
2019-04-04T22:50:10.863Z,82.07
2019-04-04T22:52:40.275Z,79.37
2019-04-04T22:55:09.507Z,86.10
2019-04-04T22:57:38.781Z,80.17
2019-04-04T23:00:08.552Z,82.43
2019-04-04T23:02:37.919Z,88.23
2019-04-04T23:05:07.889Z,87.40
2019-04-04T23:07:37.290Z,78.37
2019-04-04T23:10:11.462Z,80.10
2019-04-04T23:12:40.796Z,83.90
2019-04-04T23:15:10.111Z,88.23
2019-04-04T23:17:39.474Z,80.63
2019-04-04T23:20:09.544Z,81.77
2019-04-04T23:22:46.988Z,78.87
2019-04-04T23:25:10.038Z,71.70
2019-04-04T23:27:39.373Z,75.87
2019-04-04T23:30:09.368Z,79.50
2019-04-04T23:32:38.778Z,79.83
2019-04-04T23:35:07.931Z,83.40
2019-04-04T23:37:37.276Z,80.30
2019-04-04T23:40:06.729Z,77.87
2019-04-04T23:42:35.980Z,79.03
2019-04-04T23:45:07.919Z,73.17
2019-04-04T23:47:43.265Z,78.80
2019-04-04T23:50:08.180Z,78.73
2019-04-04T23:52:37.558Z,78.73
2019-04-04T23:55:07.024Z,78.90
2019-04-04T23:57:36.475Z,78.43
